Ambrose, North Dakota
Current Conditions -  °F | °C
As of 10:15 AM on Monday 22 Dec 2014 (Local Time) from KD50 Reporting Station
Moderate Fog Moderate Fog  
Wind Chill: 15°   Ceiling: 200
Heat Index: 27°   Visibility: 0.5mi
Dew Point: 27°   Wind: 14mph
Humidity: 100%   Direction: 330°NNW
Pressure: 29.58"   Gusts: NA
Location:  48.95°N, 103.48°W
Report Text: KD50 221615Z AUTO 33012KT 1/2SM FZFG OVC002 M03/M03 A2958 RMK AO2
Loading
Personal Weather Stations






























Interactive Weather Map New forecast layout! Learn more

10-Day Weather Forecast

Advertisements
Track Severe Weather on mobile